sensor_id;sensor_type;location;lat;lon;timestamp;temperature;humidity
7512;DHT22;9999;48.780;9.146;2023-02-05T00:00:19;3.50;99.90
7512;DHT22;9999;48.780;9.146;2023-02-05T00:02:46;3.50;99.90
7512;DHT22;9999;48.780;9.146;2023-02-05T00:05:14;3.50;99.90
7512;DHT22;9999;48.780;9.146;2023-02-05T00:07:41;3.60;99.90
7512;DHT22;9999;48.780;9.146;2023-02-05T00:10:08;3.50;99.90
7512;DHT22;9999;48.780;9.146;2023-02-05T00:12:35;3.50;99.90
7512;DHT22;9999;48.780;9.146;2023-02-05T00:15:03;3.60;99.90
7512;DHT22;9999;48.780;9.146;2023-02-05T00:17:30;3.60;99.90
7512;DHT22;9999;48.780;9.146;2023-02-05T00:19:57;3.70;99.90
7512;DHT22;9999;48.780;9.146;2023-02-05T00:22:25;3.60;99.90
7512;DHT22;9999;48.780;9.146;2023-02-05T00:24:52;3.50;99.90
7512;DHT22;9999;48.780;9.146;2023-02-05T00:27:18;3.50;99.90
7512;DHT22;9999;48.780;9.146;2023-02-05T00:29:45;3.50;99.90
7512;DHT22;9999;48.780;9.146;2023-02-05T00:32:12;3.40;99.90
7512;DHT22;9999;48.780;9.146;2023-02-05T00:34:39;3.50;99.90
7512;DHT22;9999;48.780;9.146;2023-02-05T00:37:06;3.50;99.90
7512;DHT22;9999;48.780;9.146;2023-02-05T00:39:34;3.50;99.90
7512;DHT22;9999;48.780;9.146;2023-02-05T00:42:01;3.50;99.90
7512;DHT22;9999;48.780;9.146;2023-02-05T00:44:28;3.50;99.90
7512;DHT22;9999;48.780;9.146;2023-02-05T00:46:55;3.50;99.90
7512;DHT22;9999;48.780;9.146;2023-02-05T00:49:21;3.60;99.90
7512;DHT22;9999;48.780;9.146;2023-02-05T00:51:48;3.60;99.90
7512;DHT22;9999;48.780;9.146;2023-02-05T00:54:15;3.60;99.90
7512;DHT22;9999;48.780;9.146;2023-02-05T00:56:43;3.60;99.90
7512;DHT22;9999;48.780;9.146;2023-02-05T00:59:10;3.60;99.90
7512;DHT22;9999;48.780;9.146;2023-02-05T01:01:36;3.60;99.90
7512;DHT22;9999;48.780;9.146;2023-02-05T01:04:03;3.60;99.90
7512;DHT22;9999;48.780;9.146;2023-02-05T01:06:30;3.60;99.90
7512;DHT22;9999;48.780;9.146;2023-02-05T01:08:57;3.50;99.90
7512;DHT22;9999;48.780;9.146;2023-02-05T01:11:24;3.50;99.90
7512;DHT22;9999;48.780;9.146;2023-02-05T01:13:52;3.50;99.90
7512;DHT22;9999;48.780;9.146;2023-02-05T01:16:19;3.50;99.90
7512;DHT22;9999;48.780;9.146;2023-02-05T01:18:46;3.50;99.90
7512;DHT22;9999;48.780;9.146;2023-02-05T01:21:12;3.40;99.90
7512;DHT22;9999;48.780;9.146;2023-02-05T01:23:39;3.40;99.90
7512;DHT22;9999;48.780;9.146;2023-02-05T01:26:06;3.40;99.90
7512;DHT22;9999;48.780;9.146;2023-02-05T01:28:33;3.40;99.90
7512;DHT22;9999;48.780;9.146;2023-02-05T01:31:01;3.40;99.90
7512;DHT22;9999;48.780;9.146;2023-02-05T01:33:30;3.50;99.90
7512;DHT22;9999;48.780;9.146;2023-02-05T01:35:57;3.50;99.90
7512;DHT22;9999;48.780;9.146;2023-02-05T01:38:24;3.50;99.90
7512;DHT22;9999;48.780;9.146;2023-02-05T01:40:51;3.60;99.90
7512;DHT22;9999;48.780;9.146;2023-02-05T01:43:18;3.60;99.90
7512;DHT22;9999;48.780;9.146;2023-02-05T01:45:59;3.60;99.90
7512;DHT22;9999;48.780;9.146;2023-02-05T01:48:35;3.60;99.90
7512;DHT22;9999;48.780;9.146;2023-02-05T01:51:05;3.60;99.90
7512;DHT22;9999;48.780;9.146;2023-02-05T01:53:35;3.60;99.90
7512;DHT22;9999;48.780;9.146;2023-02-05T01:56:05;3.60;99.90
7512;DHT22;9999;48.780;9.146;2023-02-05T01:58:36;3.60;99.90
7512;DHT22;9999;48.780;9.146;2023-02-05T02:01:03;3.50;99.90
7512;DHT22;9999;48.780;9.146;2023-02-05T02:03:30;3.50;99.90
7512;DHT22;9999;48.780;9.146;2023-02-05T02:05:59;3.50;99.90
7512;DHT22;9999;48.780;9.146;2023-02-05T02:08:27;3.50;99.90
7512;DHT22;9999;48.780;9.146;2023-02-05T02:10:55;3.50;99.90
7512;DHT22;9999;48.780;9.146;2023-02-05T02:13:25;3.50;99.90
7512;DHT22;9999;48.780;9.146;2023-02-05T02:15:54;3.50;99.90
7512;DHT22;9999;48.780;9.146;2023-02-05T02:18:26;3.50;99.90
7512;DHT22;9999;48.780;9.146;2023-02-05T02:24:12;3.30;99.90
7512;DHT22;9999;48.780;9.146;2023-02-05T02:27:04;3.20;99.90
7512;DHT22;9999;48.780;9.146;2023-02-05T02:29:39;3.30;99.90
7512;DHT22;9999;48.780;9.146;2023-02-05T02:32:12;3.30;99.90
7512;DHT22;9999;48.780;9.146;2023-02-05T02:34:45;3.20;99.90
7512;DHT22;9999;48.780;9.146;2023-02-05T02:37:18;3.20;99.90
7512;DHT22;9999;48.780;9.146;2023-02-05T02:39:53;3.20;99.90
7512;DHT22;9999;48.780;9.146;2023-02-05T02:42:24;3.10;99.90
7512;DHT22;9999;48.780;9.146;2023-02-05T02:44:56;3.10;99.90
7512;DHT22;9999;48.780;9.146;2023-02-05T02:47:27;3.10;99.90
7512;DHT22;9999;48.780;9.146;2023-02-05T02:49:59;3.10;99.90
7512;DHT22;9999;48.780;9.146;2023-02-05T02:52:31;3.10;99.90
7512;DHT22;9999;48.780;9.146;2023-02-05T02:54:59;3.00;99.90
7512;DHT22;9999;48.780;9.146;2023-02-05T02:57:33;2.90;99.90
7512;DHT22;9999;48.780;9.146;2023-02-05T03:00:05;3.00;99.90
7512;DHT22;9999;48.780;9.146;2023-02-05T03:02:34;2.90;99.90
7512;DHT22;9999;48.780;9.146;2023-02-05T03:05:04;2.90;99.90
7512;DHT22;9999;48.780;9.146;2023-02-05T03:07:36;2.90;99.90
7512;DHT22;9999;48.780;9.146;2023-02-05T03:10:07;2.90;99.90
7512;DHT22;9999;48.780;9.146;2023-02-05T03:12:38;2.90;99.90
7512;DHT22;9999;48.780;9.146;2023-02-05T03:15:08;3.00;99.90
7512;DHT22;9999;48.780;9.146;2023-02-05T03:17:35;2.90;99.90
7512;DHT22;9999;48.780;9.146;2023-02-05T03:20:07;3.00;99.90
7512;DHT22;9999;48.780;9.146;2023-02-05T03:22:36;2.90;99.90
7512;DHT22;9999;48.780;9.146;2023-02-05T03:25:06;3.00;99.90
7512;DHT22;9999;48.780;9.146;2023-02-05T03:27:34;3.10;99.90
7512;DHT22;9999;48.780;9.146;2023-02-05T03:30:01;3.20;99.90
7512;DHT22;9999;48.780;9.146;2023-02-05T03:32:42;3.20;99.90
7512;DHT22;9999;48.780;9.146;2023-02-05T03:35:24;3.30;99.90
7512;DHT22;9999;48.780;9.146;2023-02-05T03:38:11;3.30;99.90
7512;DHT22;9999;48.780;9.146;2023-02-05T03:40:47;3.30;99.90
7512;DHT22;9999;48.780;9.146;2023-02-05T03:43:27;3.30;99.90
7512;DHT22;9999;48.780;9.146;2023-02-05T03:46:01;3.20;99.90
7512;DHT22;9999;48.780;9.146;2023-02-05T03:48:38;3.20;99.90
7512;DHT22;9999;48.780;9.146;2023-02-05T03:51:19;3.10;99.90
7512;DHT22;9999;48.780;9.146;2023-02-05T03:53:57;3.00;99.90
7512;DHT22;9999;48.780;9.146;2023-02-05T03:56:30;2.90;99.90
7512;DHT22;9999;48.780;9.146;2023-02-05T03:58:58;2.90;99.90
7512;DHT22;9999;48.780;9.146;2023-02-05T04:01:27;2.80;99.90
7512;DHT22;9999;48.780;9.146;2023-02-05T04:03:56;2.80;99.90
7512;DHT22;9999;48.780;9.146;2023-02-05T04:06:23;2.90;99.90
7512;DHT22;9999;48.780;9.146;2023-02-05T04:08:52;2.90;99.90
7512;DHT22;9999;48.780;9.146;2023-02-05T04:11:19;2.80;99.90
7512;DHT22;9999;48.780;9.146;2023-02-05T04:13:46;2.90;99.90
7512;DHT22;9999;48.780;9.146;2023-02-05T04:16:13;2.80;99.90
7512;DHT22;9999;48.780;9.146;2023-02-05T04:18:41;2.80;99.90
7512;DHT22;9999;48.780;9.146;2023-02-05T04:21:09;2.80;99.90
7512;DHT22;9999;48.780;9.146;2023-02-05T04:23:38;2.80;99.90
7512;DHT22;9999;48.780;9.146;2023-02-05T04:26:06;2.70;99.90
7512;DHT22;9999;48.780;9.146;2023-02-05T04:28:40;2.80;99.90
7512;DHT22;9999;48.780;9.146;2023-02-05T04:31:10;2.70;99.90
7512;DHT22;9999;48.780;9.146;2023-02-05T04:33:39;2.80;99.90
7512;DHT22;9999;48.780;9.146;2023-02-05T04:36:09;2.70;99.90
7512;DHT22;9999;48.780;9.146;2023-02-05T04:38:36;2.70;99.90
7512;DHT22;9999;48.780;9.146;2023-02-05T04:41:04;2.70;99.90
7512;DHT22;9999;48.780;9.146;2023-02-05T04:43:31;2.70;99.90
7512;DHT22;9999;48.780;9.146;2023-02-05T04:45:57;2.70;99.90
7512;DHT22;9999;48.780;9.146;2023-02-05T04:48:24;2.70;99.90
7512;DHT22;9999;48.780;9.146;2023-02-05T04:50:51;2.70;99.90
7512;DHT22;9999;48.780;9.146;2023-02-05T04:53:19;2.60;99.90
7512;DHT22;9999;48.780;9.146;2023-02-05T04:55:45;2.60;99.90
7512;DHT22;9999;48.780;9.146;2023-02-05T04:58:12;2.60;99.90
7512;DHT22;9999;48.780;9.146;2023-02-05T05:00:39;2.60;99.90
7512;DHT22;9999;48.780;9.146;2023-02-05T05:03:06;2.60;99.90
7512;DHT22;9999;48.780;9.146;2023-02-05T05:05:33;2.50;99.90
7512;DHT22;9999;48.780;9.146;2023-02-05T05:08:00;2.50;99.90
7512;DHT22;9999;48.780;9.146;2023-02-05T05:10:28;2.50;99.90
7512;DHT22;9999;48.780;9.146;2023-02-05T05:12:55;2.40;99.90
7512;DHT22;9999;48.780;9.146;2023-02-05T05:15:22;2.40;99.90
7512;DHT22;9999;48.780;9.146;2023-02-05T05:17:48;2.40;99.90
7512;DHT22;9999;48.780;9.146;2023-02-05T05:20:16;2.50;99.90
7512;DHT22;9999;48.780;9.146;2023-02-05T05:22:42;2.50;99.90
7512;DHT22;9999;48.780;9.146;2023-02-05T05:25:09;2.50;99.90
7512;DHT22;9999;48.780;9.146;2023-02-05T05:27:37;2.50;99.90
7512;DHT22;9999;48.780;9.146;2023-02-05T05:30:05;2.50;99.90
7512;DHT22;9999;48.780;9.146;2023-02-05T05:32:32;2.50;99.90
7512;DHT22;9999;48.780;9.146;2023-02-05T05:34:59;2.60;99.90
7512;DHT22;9999;48.780;9.146;2023-02-05T05:37:25;2.60;99.90
7512;DHT22;9999;48.780;9.146;2023-02-05T05:39:52;2.60;99.90
7512;DHT22;9999;48.780;9.146;2023-02-05T05:42:38;2.60;99.90
7512;DHT22;9999;48.780;9.146;2023-02-05T05:45:22;2.60;99.90
7512;DHT22;9999;48.780;9.146;2023-02-05T05:47:49;2.60;99.90
7512;DHT22;9999;48.780;9.146;2023-02-05T05:50:16;2.60;99.90
7512;DHT22;9999;48.780;9.146;2023-02-05T05:52:43;2.70;99.90
7512;DHT22;9999;48.780;9.146;2023-02-05T05:55:09;2.80;99.90
7512;DHT22;9999;48.780;9.146;2023-02-05T05:57:37;2.80;99.90
7512;DHT22;9999;48.780;9.146;2023-02-05T06:00:05;2.80;99.90
7512;DHT22;9999;48.780;9.146;2023-02-05T06:02:39;2.80;99.90
7512;DHT22;9999;48.780;9.146;2023-02-05T06:05:08;2.80;99.90
7512;DHT22;9999;48.780;9.146;2023-02-05T06:07:35;2.80;99.90
7512;DHT22;9999;48.780;9.146;2023-02-05T06:10:02;2.80;99.90
7512;DHT22;9999;48.780;9.146;2023-02-05T06:12:29;2.80;99.90
7512;DHT22;9999;48.780;9.146;2023-02-05T06:14:57;2.80;99.90
7512;DHT22;9999;48.780;9.146;2023-02-05T06:17:24;2.70;99.90
7512;DHT22;9999;48.780;9.146;2023-02-05T06:19:50;2.70;99.90
7512;DHT22;9999;48.780;9.146;2023-02-05T06:22:17;2.70;99.90
7512;DHT22;9999;48.780;9.146;2023-02-05T06:24:44;2.80;99.90
7512;DHT22;9999;48.780;9.146;2023-02-05T06:27:10;2.80;99.90
7512;DHT22;9999;48.780;9.146;2023-02-05T06:29:37;2.80;99.90
7512;DHT22;9999;48.780;9.146;2023-02-05T06:32:05;2.80;99.90
7512;DHT22;9999;48.780;9.146;2023-02-05T06:34:32;2.80;99.90
7512;DHT22;9999;48.780;9.146;2023-02-05T06:36:59;2.80;99.90
7512;DHT22;9999;48.780;9.146;2023-02-05T06:39:25;2.70;99.90
7512;DHT22;9999;48.780;9.146;2023-02-05T06:41:52;2.80;99.90
7512;DHT22;9999;48.780;9.146;2023-02-05T06:44:19;2.80;99.90
7512;DHT22;9999;48.780;9.146;2023-02-05T06:46:46;2.70;99.90
7512;DHT22;9999;48.780;9.146;2023-02-05T06:49:14;2.80;99.90
7512;DHT22;9999;48.780;9.146;2023-02-05T06:51:41;2.80;99.90
7512;DHT22;9999;48.780;9.146;2023-02-05T06:54:07;2.80;99.90
7512;DHT22;9999;48.780;9.146;2023-02-05T06:56:34;2.80;99.90
7512;DHT22;9999;48.780;9.146;2023-02-05T06:59:01;2.90;99.90
7512;DHT22;9999;48.780;9.146;2023-02-05T07:01:28;2.80;99.90
7512;DHT22;9999;48.780;9.146;2023-02-05T07:03:55;2.80;99.90
7512;DHT22;9999;48.780;9.146;2023-02-05T07:06:23;2.80;99.90
7512;DHT22;9999;48.780;9.146;2023-02-05T07:08:50;2.90;99.90
7512;DHT22;9999;48.780;9.146;2023-02-05T07:11:17;2.90;99.90
7512;DHT22;9999;48.780;9.146;2023-02-05T07:13:44;2.90;99.90
7512;DHT22;9999;48.780;9.146;2023-02-05T07:16:11;2.90;99.90
7512;DHT22;9999;48.780;9.146;2023-02-05T07:18:38;2.90;99.90
7512;DHT22;9999;48.780;9.146;2023-02-05T07:21:05;2.80;99.90
7512;DHT22;9999;48.780;9.146;2023-02-05T07:23:34;2.90;99.90
7512;DHT22;9999;48.780;9.146;2023-02-05T07:26:06;2.90;99.90
7512;DHT22;9999;48.780;9.146;2023-02-05T07:28:33;2.90;99.90
7512;DHT22;9999;48.780;9.146;2023-02-05T07:31:02;2.90;99.90
7512;DHT22;9999;48.780;9.146;2023-02-05T07:33:29;3.00;99.90
7512;DHT22;9999;48.780;9.146;2023-02-05T07:35:56;3.10;99.90
7512;DHT22;9999;48.780;9.146;2023-02-05T07:38:23;3.10;99.90
7512;DHT22;9999;48.780;9.146;2023-02-05T07:40:51;3.00;99.90
7512;DHT22;9999;48.780;9.146;2023-02-05T07:43:18;3.00;99.90
7512;DHT22;9999;48.780;9.146;2023-02-05T07:45:45;3.10;99.90
7512;DHT22;9999;48.780;9.146;2023-02-05T07:48:12;3.10;99.90
7512;DHT22;9999;48.780;9.146;2023-02-05T07:50:42;3.10;99.90
7512;DHT22;9999;48.780;9.146;2023-02-05T07:53:09;3.20;99.90
7512;DHT22;9999;48.780;9.146;2023-02-05T07:55:36;3.20;99.90
7512;DHT22;9999;48.780;9.146;2023-02-05T07:58:04;3.10;99.90
7512;DHT22;9999;48.780;9.146;2023-02-05T08:00:30;3.10;99.90
7512;DHT22;9999;48.780;9.146;2023-02-05T08:02:57;3.10;99.90
7512;DHT22;9999;48.780;9.146;2023-02-05T08:05:24;3.10;99.90
7512;DHT22;9999;48.780;9.146;2023-02-05T08:07:51;3.10;99.90
7512;DHT22;9999;48.780;9.146;2023-02-05T08:10:17;3.20;99.90
7512;DHT22;9999;48.780;9.146;2023-02-05T08:12:44;3.20;99.90
7512;DHT22;9999;48.780;9.146;2023-02-05T08:15:12;3.20;99.90
7512;DHT22;9999;48.780;9.146;2023-02-05T08:17:40;3.30;99.90
7512;DHT22;9999;48.780;9.146;2023-02-05T08:20:07;3.30;99.90
7512;DHT22;9999;48.780;9.146;2023-02-05T08:22:36;3.20;99.90
7512;DHT22;9999;48.780;9.146;2023-02-05T08:25:03;3.20;99.90
7512;DHT22;9999;48.780;9.146;2023-02-05T08:27:31;3.20;99.90
7512;DHT22;9999;48.780;9.146;2023-02-05T08:29:58;3.30;99.90
7512;DHT22;9999;48.780;9.146;2023-02-05T08:32:26;3.30;99.90
7512;DHT22;9999;48.780;9.146;2023-02-05T08:34:53;3.30;99.90
7512;DHT22;9999;48.780;9.146;2023-02-05T08:37:20;3.30;99.90
7512;DHT22;9999;48.780;9.146;2023-02-05T08:39:47;3.40;99.90
7512;DHT22;9999;48.780;9.146;2023-02-05T08:42:15;3.30;99.90
7512;DHT22;9999;48.780;9.146;2023-02-05T08:44:42;3.40;99.90
7512;DHT22;9999;48.780;9.146;2023-02-05T08:47:09;3.50;99.90
7512;DHT22;9999;48.780;9.146;2023-02-05T08:49:37;3.60;99.90
7512;DHT22;9999;48.780;9.146;2023-02-05T08:52:04;3.60;99.90
7512;DHT22;9999;48.780;9.146;2023-02-05T08:54:31;3.60;99.90
7512;DHT22;9999;48.780;9.146;2023-02-05T08:56:57;3.70;99.90
7512;DHT22;9999;48.780;9.146;2023-02-05T08:59:25;3.70;99.90
7512;DHT22;9999;48.780;9.146;2023-02-05T09:01:51;3.70;99.90
7512;DHT22;9999;48.780;9.146;2023-02-05T09:04:19;3.70;99.90
7512;DHT22;9999;48.780;9.146;2023-02-05T09:06:49;3.60;99.90
7512;DHT22;9999;48.780;9.146;2023-02-05T09:09:16;3.60;99.90
7512;DHT22;9999;48.780;9.146;2023-02-05T09:11:44;3.60;99.90
7512;DHT22;9999;48.780;9.146;2023-02-05T09:14:11;3.70;99.90
7512;DHT22;9999;48.780;9.146;2023-02-05T09:16:39;3.70;99.90
7512;DHT22;9999;48.780;9.146;2023-02-05T09:19:06;3.80;99.90
7512;DHT22;9999;48.780;9.146;2023-02-05T09:21:33;3.80;99.90
7512;DHT22;9999;48.780;9.146;2023-02-05T09:24:01;3.90;99.90
7512;DHT22;9999;48.780;9.146;2023-02-05T09:26:28;3.90;99.90
7512;DHT22;9999;48.780;9.146;2023-02-05T09:28:55;3.90;99.90
7512;DHT22;9999;48.780;9.146;2023-02-05T09:31:23;3.90;99.90
7512;DHT22;9999;48.780;9.146;2023-02-05T09:34:05;3.80;99.90
7512;DHT22;9999;48.780;9.146;2023-02-05T09:36:32;3.90;99.90
7512;DHT22;9999;48.780;9.146;2023-02-05T09:38:58;3.80;99.90
7512;DHT22;9999;48.780;9.146;2023-02-05T09:41:28;3.80;99.90
7512;DHT22;9999;48.780;9.146;2023-02-05T09:44:00;3.80;99.90
7512;DHT22;9999;48.780;9.146;2023-02-05T09:46:40;3.80;99.90
7512;DHT22;9999;48.780;9.146;2023-02-05T09:49:16;3.70;99.90
7512;DHT22;9999;48.780;9.146;2023-02-05T09:51:47;3.70;99.90
7512;DHT22;9999;48.780;9.146;2023-02-05T09:54:17;3.60;99.90
7512;DHT22;9999;48.780;9.146;2023-02-05T09:56:45;3.70;99.90
7512;DHT22;9999;48.780;9.146;2023-02-05T09:59:15;3.70;99.90
7512;DHT22;9999;48.780;9.146;2023-02-05T10:01:46;3.70;99.90
7512;DHT22;9999;48.780;9.146;2023-02-05T10:04:16;3.80;99.90
7512;DHT22;9999;48.780;9.146;2023-02-05T10:10:12;3.80;99.90
7512;DHT22;9999;48.780;9.146;2023-02-05T10:13:05;3.80;99.90
7512;DHT22;9999;48.780;9.146;2023-02-05T10:15:46;3.80;99.90
7512;DHT22;9999;48.780;9.146;2023-02-05T10:18:22;3.80;99.90
7512;DHT22;9999;48.780;9.146;2023-02-05T10:21:00;3.90;99.90
7512;DHT22;9999;48.780;9.146;2023-02-05T10:23:44;3.90;99.90
7512;DHT22;9999;48.780;9.146;2023-02-05T10:26:13;3.90;99.90
7512;DHT22;9999;48.780;9.146;2023-02-05T10:29:04;3.80;99.90
7512;DHT22;9999;48.780;9.146;2023-02-05T10:31:39;3.90;99.90
7512;DHT22;9999;48.780;9.146;2023-02-05T10:34:16;3.90;99.90
7512;DHT22;9999;48.780;9.146;2023-02-05T10:36:47;4.00;99.90
7512;DHT22;9999;48.780;9.146;2023-02-05T10:39:17;3.90;99.90
7512;DHT22;9999;48.780;9.146;2023-02-05T10:41:48;3.80;99.90
7512;DHT22;9999;48.780;9.146;2023-02-05T10:44:22;3.90;99.90
7512;DHT22;9999;48.780;9.146;2023-02-05T10:46:55;3.90;99.90
7512;DHT22;9999;48.780;9.146;2023-02-05T10:49:27;4.00;99.90
7512;DHT22;9999;48.780;9.146;2023-02-05T10:51:55;4.00;99.90
7512;DHT22;9999;48.780;9.146;2023-02-05T10:54:25;4.10;99.90
7512;DHT22;9999;48.780;9.146;2023-02-05T10:56:52;4.10;99.90
7512;DHT22;9999;48.780;9.146;2023-02-05T10:59:23;4.20;99.90
7512;DHT22;9999;48.780;9.146;2023-02-05T11:01:51;4.20;99.90
7512;DHT22;9999;48.780;9.146;2023-02-05T11:04:27;4.30;99.90
7512;DHT22;9999;48.780;9.146;2023-02-05T11:06:58;4.40;99.90
7512;DHT22;9999;48.780;9.146;2023-02-05T11:09:32;4.30;99.90
7512;DHT22;9999;48.780;9.146;2023-02-05T11:12:01;4.40;99.90
7512;DHT22;9999;48.780;9.146;2023-02-05T11:14:32;4.50;99.90
7512;DHT22;9999;48.780;9.146;2023-02-05T11:17:06;4.40;99.90
7512;DHT22;9999;48.780;9.146;2023-02-05T11:19:33;4.50;99.90
7512;DHT22;9999;48.780;9.146;2023-02-05T11:22:03;4.60;99.90
7512;DHT22;9999;48.780;9.146;2023-02-05T11:24:32;4.50;99.90
7512;DHT22;9999;48.780;9.146;2023-02-05T11:27:23;4.50;99.90
7512;DHT22;9999;48.780;9.146;2023-02-05T11:29:50;4.50;99.90
7512;DHT22;9999;48.780;9.146;2023-02-05T11:32:18;4.60;99.90
7512;DHT22;9999;48.780;9.146;2023-02-05T11:34:45;4.60;99.90
7512;DHT22;9999;48.780;9.146;2023-02-05T11:37:15;4.60;99.90
7512;DHT22;9999;48.780;9.146;2023-02-05T11:39:44;4.60;99.90
7512;DHT22;9999;48.780;9.146;2023-02-05T11:42:18;4.50;99.90
7512;DHT22;9999;48.780;9.146;2023-02-05T11:44:48;4.60;99.90
7512;DHT22;9999;48.780;9.146;2023-02-05T11:47:22;4.70;99.90
7512;DHT22;9999;48.780;9.146;2023-02-05T11:49:50;4.70;99.90
7512;DHT22;9999;48.780;9.146;2023-02-05T11:52:24;4.60;99.90
7512;DHT22;9999;48.780;9.146;2023-02-05T11:54:52;4.70;99.90
7512;DHT22;9999;48.780;9.146;2023-02-05T11:57:30;4.70;99.90
7512;DHT22;9999;48.780;9.146;2023-02-05T11:59:59;4.80;99.90
7512;DHT22;9999;48.780;9.146;2023-02-05T12:02:30;4.70;99.90
7512;DHT22;9999;48.780;9.146;2023-02-05T12:05:03;4.70;99.90
7512;DHT22;9999;48.780;9.146;2023-02-05T12:07:37;4.80;99.90
7512;DHT22;9999;48.780;9.146;2023-02-05T12:10:13;4.70;99.90
7512;DHT22;9999;48.780;9.146;2023-02-05T12:12:47;4.80;99.90
7512;DHT22;9999;48.780;9.146;2023-02-05T12:15:22;4.90;99.90
7512;DHT22;9999;48.780;9.146;2023-02-05T12:17:53;4.90;99.90
7512;DHT22;9999;48.780;9.146;2023-02-05T12:20:26;4.90;99.90
7512;DHT22;9999;48.780;9.146;2023-02-05T12:23:30;5.00;99.90
7512;DHT22;9999;48.780;9.146;2023-02-05T12:26:18;4.90;99.90
7512;DHT22;9999;48.780;9.146;2023-02-05T12:28:53;4.90;99.90
7512;DHT22;9999;48.780;9.146;2023-02-05T12:31:32;4.90;99.90
7512;DHT22;9999;48.780;9.146;2023-02-05T12:34:11;5.00;99.90
7512;DHT22;9999;48.780;9.146;2023-02-05T12:36:54;5.00;99.90
7512;DHT22;9999;48.780;9.146;2023-02-05T12:39:36;5.00;99.90
7512;DHT22;9999;48.780;9.146;2023-02-05T12:42:13;4.90;99.90
7512;DHT22;9999;48.780;9.146;2023-02-05T12:44:52;4.70;99.90
7512;DHT22;9999;48.780;9.146;2023-02-05T12:47:38;4.60;99.90
7512;DHT22;9999;48.780;9.146;2023-02-05T12:50:17;4.60;99.90
7512;DHT22;9999;48.780;9.146;2023-02-05T12:52:54;4.50;99.90
7512;DHT22;9999;48.780;9.146;2023-02-05T12:55:33;4.50;99.90
7512;DHT22;9999;48.780;9.146;2023-02-05T12:58:04;4.50;99.90
7512;DHT22;9999;48.780;9.146;2023-02-05T13:00:33;4.50;99.90
7512;DHT22;9999;48.780;9.146;2023-02-05T13:03:06;4.60;99.90
7512;DHT22;9999;48.780;9.146;2023-02-05T13:05:37;4.60;99.90
7512;DHT22;9999;48.780;9.146;2023-02-05T13:08:10;4.60;99.90
7512;DHT22;9999;48.780;9.146;2023-02-05T13:10:50;4.70;99.90
7512;DHT22;9999;48.780;9.146;2023-02-05T13:13:24;4.70;99.90
7512;DHT22;9999;48.780;9.146;2023-02-05T13:15:58;4.70;99.90
7512;DHT22;9999;48.780;9.146;2023-02-05T13:18:29;4.70;99.90
7512;DHT22;9999;48.780;9.146;2023-02-05T13:21:01;4.70;99.90
7512;DHT22;9999;48.780;9.146;2023-02-05T13:23:47;4.60;99.90
7512;DHT22;9999;48.780;9.146;2023-02-05T13:26:36;4.60;99.90
7512;DHT22;9999;48.780;9.146;2023-02-05T13:29:25;4.60;99.90
7512;DHT22;9999;48.780;9.146;2023-02-05T13:31:57;4.60;99.90
7512;DHT22;9999;48.780;9.146;2023-02-05T13:34:27;4.50;99.90
7512;DHT22;9999;48.780;9.146;2023-02-05T13:37:17;4.50;99.90
7512;DHT22;9999;48.780;9.146;2023-02-05T13:40:20;4.40;99.90
7512;DHT22;9999;48.780;9.146;2023-02-05T13:43:15;4.30;99.90
7512;DHT22;9999;48.780;9.146;2023-02-05T13:46:03;4.30;99.90
7512;DHT22;9999;48.780;9.146;2023-02-05T13:48:57;4.20;99.90
7512;DHT22;9999;48.780;9.146;2023-02-05T13:51:40;4.20;99.90
7512;DHT22;9999;48.780;9.146;2023-02-05T13:54:26;4.10;99.90
7512;DHT22;9999;48.780;9.146;2023-02-05T13:57:11;4.10;99.90
7512;DHT22;9999;48.780;9.146;2023-02-05T13:59:49;4.10;99.90
7512;DHT22;9999;48.780;9.146;2023-02-05T14:02:30;4.00;99.90
7512;DHT22;9999;48.780;9.146;2023-02-05T14:04:59;3.90;99.90
7512;DHT22;9999;48.780;9.146;2023-02-05T14:07:29;3.90;99.90
7512;DHT22;9999;48.780;9.146;2023-02-05T14:09:58;3.80;99.90
7512;DHT22;9999;48.780;9.146;2023-02-05T14:12:28;3.70;99.90
7512;DHT22;9999;48.780;9.146;2023-02-05T14:15:34;3.60;99.90
7512;DHT22;9999;48.780;9.146;2023-02-05T14:18:01;3.60;99.90
7512;DHT22;9999;48.780;9.146;2023-02-05T14:20:34;3.60;99.90
7512;DHT22;9999;48.780;9.146;2023-02-05T14:23:02;3.60;99.90
7512;DHT22;9999;48.780;9.146;2023-02-05T14:26:05;3.60;99.90
7512;DHT22;9999;48.780;9.146;2023-02-05T14:28:45;3.60;99.90
7512;DHT22;9999;48.780;9.146;2023-02-05T14:34:49;3.40;99.90
7512;DHT22;9999;48.780;9.146;2023-02-05T14:40:21;3.30;99.90
7512;DHT22;9999;48.780;9.146;2023-02-05T14:42:52;3.30;99.90
7512;DHT22;9999;48.780;9.146;2023-02-05T14:45:21;3.30;99.90
7512;DHT22;9999;48.780;9.146;2023-02-05T14:47:49;3.20;99.90
7512;DHT22;9999;48.780;9.146;2023-02-05T14:50:23;3.10;99.90
7512;DHT22;9999;48.780;9.146;2023-02-05T14:52:52;3.10;99.90
7512;DHT22;9999;48.780;9.146;2023-02-05T14:55:24;3.10;99.90
7512;DHT22;9999;48.780;9.146;2023-02-05T14:57:55;3.20;99.90
7512;DHT22;9999;48.780;9.146;2023-02-05T15:00:27;3.20;99.90
7512;DHT22;9999;48.780;9.146;2023-02-05T15:03:16;3.20;99.90
7512;DHT22;9999;48.780;9.146;2023-02-05T15:05:53;3.20;99.90
7512;DHT22;9999;48.780;9.146;2023-02-05T15:08:28;3.20;99.90
7512;DHT22;9999;48.780;9.146;2023-02-05T15:11:07;3.20;99.90
7512;DHT22;9999;48.780;9.146;2023-02-05T15:13:37;3.30;99.90
7512;DHT22;9999;48.780;9.146;2023-02-05T15:16:17;3.20;99.90
7512;DHT22;9999;48.780;9.146;2023-02-05T15:18:45;3.30;99.90
7512;DHT22;9999;48.780;9.146;2023-02-05T15:21:19;3.30;99.90
7512;DHT22;9999;48.780;9.146;2023-02-05T15:23:51;3.30;99.90
7512;DHT22;9999;48.780;9.146;2023-02-05T15:26:22;3.30;99.90
7512;DHT22;9999;48.780;9.146;2023-02-05T15:28:56;3.40;99.90
7512;DHT22;9999;48.780;9.146;2023-02-05T15:31:32;3.30;99.90
7512;DHT22;9999;48.780;9.146;2023-02-05T15:34:28;3.30;99.90
7512;DHT22;9999;48.780;9.146;2023-02-05T15:37:01;3.30;99.90
7512;DHT22;9999;48.780;9.146;2023-02-05T15:39:33;3.30;99.90
7512;DHT22;9999;48.780;9.146;2023-02-05T15:42:02;3.30;99.90
7512;DHT22;9999;48.780;9.146;2023-02-05T15:44:32;3.20;99.90
7512;DHT22;9999;48.780;9.146;2023-02-05T15:47:01;3.10;99.90
7512;DHT22;9999;48.780;9.146;2023-02-05T15:49:33;3.20;99.90
7512;DHT22;9999;48.780;9.146;2023-02-05T15:52:03;3.30;99.90
7512;DHT22;9999;48.780;9.146;2023-02-05T15:54:33;3.30;99.90
7512;DHT22;9999;48.780;9.146;2023-02-05T15:57:02;3.30;99.90
7512;DHT22;9999;48.780;9.146;2023-02-05T15:59:30;3.40;99.90
7512;DHT22;9999;48.780;9.146;2023-02-05T16:02:07;3.30;99.90
7512;DHT22;9999;48.780;9.146;2023-02-05T16:04:40;3.30;99.90
7512;DHT22;9999;48.780;9.146;2023-02-05T16:07:26;3.30;99.90
7512;DHT22;9999;48.780;9.146;2023-02-05T16:09:56;3.30;99.90
7512;DHT22;9999;48.780;9.146;2023-02-05T16:12:23;3.30;99.90
7512;DHT22;9999;48.780;9.146;2023-02-05T16:15:01;3.20;99.90
7512;DHT22;9999;48.780;9.146;2023-02-05T16:17:33;3.10;99.90
7512;DHT22;9999;48.780;9.146;2023-02-05T16:20:10;3.20;99.90
7512;DHT22;9999;48.780;9.146;2023-02-05T16:22:41;3.20;99.90
7512;DHT22;9999;48.780;9.146;2023-02-05T16:25:17;3.20;99.90
7512;DHT22;9999;48.780;9.146;2023-02-05T16:27:47;3.20;99.90
7512;DHT22;9999;48.780;9.146;2023-02-05T16:30:20;3.10;99.90
7512;DHT22;9999;48.780;9.146;2023-02-05T16:32:47;3.10;99.90
7512;DHT22;9999;48.780;9.146;2023-02-05T16:35:23;3.20;99.90
7512;DHT22;9999;48.780;9.146;2023-02-05T16:37:51;3.20;99.90
7512;DHT22;9999;48.780;9.146;2023-02-05T16:40:31;3.10;99.90
7512;DHT22;9999;48.780;9.146;2023-02-05T16:43:16;3.10;99.90
7512;DHT22;9999;48.780;9.146;2023-02-05T16:46:18;3.20;99.90
7512;DHT22;9999;48.780;9.146;2023-02-05T16:48:48;3.20;99.90
7512;DHT22;9999;48.780;9.146;2023-02-05T16:51:52;3.20;99.90
7512;DHT22;9999;48.780;9.146;2023-02-05T16:54:28;3.20;99.90
7512;DHT22;9999;48.780;9.146;2023-02-05T16:57:02;3.20;99.90